Huvudsida
METAR-TAF:

METAR-TAF

Flygplatser :

Tjeljabinsk, Ryssland

latitud: 55-10N, longitud: 061-24E, höjd: 234 m

Aktuellt väderrapport

Denna rapport gjordes för 13 minuter sedan, klockan 13:00 UTC
Vind 16 kt från väst i byarna ända upp till 25 kt
Temperatur 17°C
Fuktighet 34%
Tryck 1012 hPa
Sikt 10 km eller mer
Få moln på en höjd av 3000 ft

METAR: USCC 271300Z 26008G13MPS 9999 FEW030 17/01 Q1012 R27/000060 TEMPO 29018MPS RMK QFE739

Tid: 18:13 (13:13 UTC)

Väderprognos

Denna rapport gjordes för 2 timmar och 13 minuter sedan, klockan 11:00 UTC
Prognos gäller från 27 kl. 12 UTC till 28 kl. 12 UTC
Vind 16 kt från väst
Sikt 10 km eller mer
Brutna moln på en höjd av 2000 ft, Cumulonimbus.
Temporärt
från 27 kl. 12 UTC till 27 kl. 24 UTC
Vind 29 kt från väst/sydväst
Sikt: 3100 m
på en höjd av 700 ft
lätta regnskurar

TAF: USCC 271100Z 2712/2812 26008MPS 9999 BKN020CB TEMPO 2712/2724 24015MPS 3100 -SHRA VV007

Aktuella väderrapporter och prognoser från 4000 flygplatser (METAR- och TAF-rapporter).

De tillgängliga stationerna syns som gula och röda prickar på kartan.

För musen över prickarna för att se namnen på stationerna.

Klicka sedan för att få väderrapporter och prognoser.

För att ändra kartan: Klicka på de gröna knapparna med ett svart kors på för att zooma in; den gröna knappen med ett streck på för att zooma ut; eller på de gröna pilarna för angränsande kartor.


METAR-TAF: